Terminal Aerodrome Forecast
Issued by NWS North Platte, NE

Home | Current Version | Previous Version | Text Only | Print | Product List | Glossary On
Versions: 1 2 3 4 5 6 7 8 9 10 11 12 13 14 15 16 17 18 19 20 21 22 23 24 25 26 27 28 29
000
FTUS43 KLBF 281400 AAA
TAFLBF
TAF AMD
KLBF 281435Z 2815/2912 29007KT P6SM FEW020 SCT060
     FM282100 31008KT P6SM BKN120
     FM290300 34006KT P6SM BKN050 OVC150=

USA.gov is the U.S. government's official web portal to all federal, state and local government web resources and services.